sensor_id;sensor_type;location;lat;lon;timestamp;P1;durP1;ratioP1;P2;durP2;ratioP2
70663;SDS011;58237;57.996;56.290;2022-08-30T00:01:23;18.73;;;9.95;;
70663;SDS011;58237;57.996;56.290;2022-08-30T00:03:49;21.00;;;10.25;;
70663;SDS011;58237;57.996;56.290;2022-08-30T00:06:15;16.85;;;9.57;;
70663;SDS011;58237;57.996;56.290;2022-08-30T00:08:41;18.50;;;9.82;;
70663;SDS011;58237;57.996;56.290;2022-08-30T00:11:08;17.33;;;9.30;;
70663;SDS011;58237;57.996;56.290;2022-08-30T00:13:37;18.70;;;9.85;;
70663;SDS011;58237;57.996;56.290;2022-08-30T00:16:03;19.30;;;10.32;;
70663;SDS011;58237;57.996;56.290;2022-08-30T00:18:28;18.70;;;9.90;;
70663;SDS011;58237;57.996;56.290;2022-08-30T00:20:54;17.88;;;9.80;;
70663;SDS011;58237;57.996;56.290;2022-08-30T00:23:19;17.83;;;10.07;;
70663;SDS011;58237;57.996;56.290;2022-08-30T00:25:44;21.88;;;10.88;;
70663;SDS011;58237;57.996;56.290;2022-08-30T00:28:10;19.42;;;9.65;;
70663;SDS011;58237;57.996;56.290;2022-08-30T00:30:36;19.55;;;10.85;;
70663;SDS011;58237;57.996;56.290;2022-08-30T00:33:02;19.27;;;10.13;;
70663;SDS011;58237;57.996;56.290;2022-08-30T00:35:27;20.67;;;10.43;;
70663;SDS011;58237;57.996;56.290;2022-08-30T00:37:53;18.60;;;9.98;;
70663;SDS011;58237;57.996;56.290;2022-08-30T00:40:18;18.77;;;10.07;;
70663;SDS011;58237;57.996;56.290;2022-08-30T00:42:44;18.20;;;10.05;;
70663;SDS011;58237;57.996;56.290;2022-08-30T00:45:12;19.90;;;9.73;;
70663;SDS011;58237;57.996;56.290;2022-08-30T00:47:38;20.77;;;10.45;;
70663;SDS011;58237;57.996;56.290;2022-08-30T00:50:03;20.20;;;9.98;;
70663;SDS011;58237;57.996;56.290;2022-08-30T00:52:29;18.38;;;10.10;;
70663;SDS011;58237;57.996;56.290;2022-08-30T00:54:54;19.90;;;10.88;;
70663;SDS011;58237;57.996;56.290;2022-08-30T00:57:20;16.90;;;9.43;;
70663;SDS011;58237;57.996;56.290;2022-08-30T00:59:45;19.23;;;10.35;;
70663;SDS011;58237;57.996;56.290;2022-08-30T01:02:11;20.90;;;10.57;;
70663;SDS011;58237;57.996;56.290;2022-08-30T01:04:37;20.08;;;10.23;;
70663;SDS011;58237;57.996;56.290;2022-08-30T01:07:04;18.63;;;9.52;;
70663;SDS011;58237;57.996;56.290;2022-08-30T01:09:30;18.00;;;10.00;;
70663;SDS011;58237;57.996;56.290;2022-08-30T01:11:55;21.20;;;9.85;;
70663;SDS011;58237;57.996;56.290;2022-08-30T01:14:21;21.70;;;10.38;;
70663;SDS011;58237;57.996;56.290;2022-08-30T01:16:46;18.55;;;10.32;;
70663;SDS011;58237;57.996;56.290;2022-08-30T01:19:26;16.98;;;9.68;;
70663;SDS011;58237;57.996;56.290;2022-08-30T01:21:56;19.52;;;10.13;;
70663;SDS011;58237;57.996;56.290;2022-08-30T01:24:24;18.70;;;9.48;;
70663;SDS011;58237;57.996;56.290;2022-08-30T01:26:49;18.58;;;9.63;;
70663;SDS011;58237;57.996;56.290;2022-08-30T01:29:17;18.88;;;9.48;;
70663;SDS011;58237;57.996;56.290;2022-08-30T01:31:44;21.35;;;10.55;;
70663;SDS011;58237;57.996;56.290;2022-08-30T01:34:10;24.63;;;11.00;;
70663;SDS011;58237;57.996;56.290;2022-08-30T01:36:35;20.50;;;9.82;;
70663;SDS011;58237;57.996;56.290;2022-08-30T01:39:01;20.65;;;10.48;;
70663;SDS011;58237;57.996;56.290;2022-08-30T01:41:28;17.13;;;9.82;;
70663;SDS011;58237;57.996;56.290;2022-08-30T01:43:55;20.10;;;10.05;;
70663;SDS011;58237;57.996;56.290;2022-08-30T01:46:21;20.27;;;10.43;;
70663;SDS011;58237;57.996;56.290;2022-08-30T01:48:47;20.05;;;10.23;;
70663;SDS011;58237;57.996;56.290;2022-08-30T01:51:13;19.50;;;9.95;;
70663;SDS011;58237;57.996;56.290;2022-08-30T01:53:39;18.90;;;10.02;;
70663;SDS011;58237;57.996;56.290;2022-08-30T01:56:05;21.25;;;10.45;;
70663;SDS011;58237;57.996;56.290;2022-08-30T01:58:30;18.98;;;9.98;;
70663;SDS011;58237;57.996;56.290;2022-08-30T02:00:56;17.92;;;9.35;;
70663;SDS011;58237;57.996;56.290;2022-08-30T02:03:21;19.27;;;9.95;;
70663;SDS011;58237;57.996;56.290;2022-08-30T02:05:46;19.33;;;9.65;;
70663;SDS011;58237;57.996;56.290;2022-08-30T02:08:12;18.33;;;9.88;;
70663;SDS011;58237;57.996;56.290;2022-08-30T02:10:37;19.00;;;9.60;;
70663;SDS011;58237;57.996;56.290;2022-08-30T02:13:02;20.30;;;9.82;;
70663;SDS011;58237;57.996;56.290;2022-08-30T02:15:28;18.40;;;10.32;;
70663;SDS011;58237;57.996;56.290;2022-08-30T02:17:53;19.10;;;10.82;;
70663;SDS011;58237;57.996;56.290;2022-08-30T02:20:18;19.30;;;10.15;;
70663;SDS011;58237;57.996;56.290;2022-08-30T02:22:44;19.52;;;10.38;;
70663;SDS011;58237;57.996;56.290;2022-08-30T02:25:09;18.88;;;10.10;;
70663;SDS011;58237;57.996;56.290;2022-08-30T02:27:36;18.50;;;10.05;;
70663;SDS011;58237;57.996;56.290;2022-08-30T02:30:03;21.00;;;10.48;;
70663;SDS011;58237;57.996;56.290;2022-08-30T02:32:28;20.85;;;10.18;;
70663;SDS011;58237;57.996;56.290;2022-08-30T02:34:53;21.30;;;10.73;;
70663;SDS011;58237;57.996;56.290;2022-08-30T02:37:19;18.60;;;9.95;;
70663;SDS011;58237;57.996;56.290;2022-08-30T02:39:44;20.67;;;11.73;;
70663;SDS011;58237;57.996;56.290;2022-08-30T02:42:10;19.80;;;10.00;;
70663;SDS011;58237;57.996;56.290;2022-08-30T02:44:35;23.90;;;10.48;;
70663;SDS011;58237;57.996;56.290;2022-08-30T02:47:01;20.20;;;11.05;;
70663;SDS011;58237;57.996;56.290;2022-08-30T02:49:26;22.55;;;11.23;;
70663;SDS011;58237;57.996;56.290;2022-08-30T02:51:51;19.77;;;11.25;;
70663;SDS011;58237;57.996;56.290;2022-08-30T02:54:17;21.40;;;10.35;;
70663;SDS011;58237;57.996;56.290;2022-08-30T02:56:42;18.63;;;9.73;;
70663;SDS011;58237;57.996;56.290;2022-08-30T02:59:07;18.73;;;10.50;;
70663;SDS011;58237;57.996;56.290;2022-08-30T03:01:33;20.92;;;10.02;;
70663;SDS011;58237;57.996;56.290;2022-08-30T03:03:58;21.33;;;10.88;;
70663;SDS011;58237;57.996;56.290;2022-08-30T03:06:23;17.02;;;9.63;;
70663;SDS011;58237;57.996;56.290;2022-08-30T03:08:49;21.38;;;9.85;;
70663;SDS011;58237;57.996;56.290;2022-08-30T03:11:14;20.95;;;10.02;;
70663;SDS011;58237;57.996;56.290;2022-08-30T03:13:39;21.67;;;10.77;;
70663;SDS011;58237;57.996;56.290;2022-08-30T03:16:05;18.13;;;10.38;;
70663;SDS011;58237;57.996;56.290;2022-08-30T03:18:30;19.55;;;10.75;;
70663;SDS011;58237;57.996;56.290;2022-08-30T03:20:55;21.30;;;10.10;;
70663;SDS011;58237;57.996;56.290;2022-08-30T03:23:21;19.58;;;10.82;;
70663;SDS011;58237;57.996;56.290;2022-08-30T03:25:46;19.80;;;9.93;;
70663;SDS011;58237;57.996;56.290;2022-08-30T03:28:12;20.30;;;10.85;;
70663;SDS011;58237;57.996;56.290;2022-08-30T03:30:37;21.15;;;9.63;;
70663;SDS011;58237;57.996;56.290;2022-08-30T03:33:02;20.23;;;10.60;;
70663;SDS011;58237;57.996;56.290;2022-08-30T03:35:28;20.55;;;10.10;;
70663;SDS011;58237;57.996;56.290;2022-08-30T03:37:53;22.58;;;10.80;;
70663;SDS011;58237;57.996;56.290;2022-08-30T03:40:19;19.40;;;9.00;;
70663;SDS011;58237;57.996;56.290;2022-08-30T03:42:45;21.83;;;10.43;;
70663;SDS011;58237;57.996;56.290;2022-08-30T03:45:11;21.50;;;9.82;;
70663;SDS011;58237;57.996;56.290;2022-08-30T03:47:39;24.60;;;10.35;;
70663;SDS011;58237;57.996;56.290;2022-08-30T03:50:05;20.02;;;9.93;;
70663;SDS011;58237;57.996;56.290;2022-08-30T03:52:30;18.63;;;9.65;;
70663;SDS011;58237;57.996;56.290;2022-08-30T03:54:56;19.83;;;9.63;;
70663;SDS011;58237;57.996;56.290;2022-08-30T03:57:21;19.45;;;9.52;;
70663;SDS011;58237;57.996;56.290;2022-08-30T03:59:46;19.67;;;10.38;;
70663;SDS011;58237;57.996;56.290;2022-08-30T04:02:12;20.98;;;9.98;;
70663;SDS011;58237;57.996;56.290;2022-08-30T04:04:37;18.58;;;9.05;;
70663;SDS011;58237;57.996;56.290;2022-08-30T04:07:02;21.95;;;9.57;;
70663;SDS011;58237;57.996;56.290;2022-08-30T04:09:28;21.63;;;9.88;;
70663;SDS011;58237;57.996;56.290;2022-08-30T04:11:53;18.10;;;9.75;;
70663;SDS011;58237;57.996;56.290;2022-08-30T04:14:18;18.50;;;10.05;;
70663;SDS011;58237;57.996;56.290;2022-08-30T04:16:44;21.13;;;9.98;;
70663;SDS011;58237;57.996;56.290;2022-08-30T04:19:10;20.98;;;10.20;;
70663;SDS011;58237;57.996;56.290;2022-08-30T04:21:35;21.90;;;10.25;;
70663;SDS011;58237;57.996;56.290;2022-08-30T04:24:01;18.73;;;9.57;;
70663;SDS011;58237;57.996;56.290;2022-08-30T04:26:26;24.63;;;9.57;;
70663;SDS011;58237;57.996;56.290;2022-08-30T04:28:52;19.17;;;9.25;;
70663;SDS011;58237;57.996;56.290;2022-08-30T04:31:18;19.52;;;9.57;;
70663;SDS011;58237;57.996;56.290;2022-08-30T04:33:43;19.02;;;9.60;;
70663;SDS011;58237;57.996;56.290;2022-08-30T04:36:09;21.80;;;10.30;;
70663;SDS011;58237;57.996;56.290;2022-08-30T04:38:36;21.58;;;10.13;;
70663;SDS011;58237;57.996;56.290;2022-08-30T04:41:01;22.17;;;10.07;;
70663;SDS011;58237;57.996;56.290;2022-08-30T04:43:27;19.35;;;10.13;;
70663;SDS011;58237;57.996;56.290;2022-08-30T04:45:53;18.95;;;9.18;;
70663;SDS011;58237;57.996;56.290;2022-08-30T04:48:19;19.35;;;10.15;;
70663;SDS011;58237;57.996;56.290;2022-08-30T04:50:45;22.75;;;11.75;;
70663;SDS011;58237;57.996;56.290;2022-08-30T04:53:11;17.90;;;10.32;;
70663;SDS011;58237;57.996;56.290;2022-08-30T04:55:38;16.08;;;8.93;;
70663;SDS011;58237;57.996;56.290;2022-08-30T04:58:03;21.70;;;10.15;;
70663;SDS011;58237;57.996;56.290;2022-08-30T05:00:29;18.75;;;10.43;;
70663;SDS011;58237;57.996;56.290;2022-08-30T05:02:54;18.85;;;9.73;;
70663;SDS011;58237;57.996;56.290;2022-08-30T05:05:19;21.08;;;11.98;;
70663;SDS011;58237;57.996;56.290;2022-08-30T05:07:45;23.35;;;11.32;;
70663;SDS011;58237;57.996;56.290;2022-08-30T05:10:10;18.52;;;10.27;;
70663;SDS011;58237;57.996;56.290;2022-08-30T05:12:35;18.15;;;10.38;;
70663;SDS011;58237;57.996;56.290;2022-08-30T05:15:01;18.73;;;10.82;;
70663;SDS011;58237;57.996;56.290;2022-08-30T05:17:26;23.83;;;12.98;;
70663;SDS011;58237;57.996;56.290;2022-08-30T05:19:51;21.92;;;11.45;;
70663;SDS011;58237;57.996;56.290;2022-08-30T05:22:17;20.55;;;12.52;;
70663;SDS011;58237;57.996;56.290;2022-08-30T05:24:42;21.45;;;11.57;;
70663;SDS011;58237;57.996;56.290;2022-08-30T05:27:07;20.38;;;11.52;;
70663;SDS011;58237;57.996;56.290;2022-08-30T05:29:33;22.52;;;12.80;;
70663;SDS011;58237;57.996;56.290;2022-08-30T05:31:58;24.75;;;12.70;;
70663;SDS011;58237;57.996;56.290;2022-08-30T05:34:24;18.75;;;11.20;;
70663;SDS011;58237;57.996;56.290;2022-08-30T05:36:49;25.75;;;14.82;;
70663;SDS011;58237;57.996;56.290;2022-08-30T05:39:14;22.20;;;12.73;;
70663;SDS011;58237;57.996;56.290;2022-08-30T05:41:40;21.05;;;10.88;;
70663;SDS011;58237;57.996;56.290;2022-08-30T05:44:06;25.02;;;12.38;;
70663;SDS011;58237;57.996;56.290;2022-08-30T05:46:32;18.95;;;11.05;;
70663;SDS011;58237;57.996;56.290;2022-08-30T05:48:58;20.77;;;11.60;;
70663;SDS011;58237;57.996;56.290;2022-08-30T05:51:24;21.42;;;12.80;;
70663;SDS011;58237;57.996;56.290;2022-08-30T05:53:50;23.52;;;12.00;;
70663;SDS011;58237;57.996;56.290;2022-08-30T05:56:17;21.17;;;12.85;;
70663;SDS011;58237;57.996;56.290;2022-08-30T05:58:43;20.80;;;11.88;;
70663;SDS011;58237;57.996;56.290;2022-08-30T06:01:25;24.35;;;12.88;;
70663;SDS011;58237;57.996;56.290;2022-08-30T06:03:51;19.60;;;11.85;;
70663;SDS011;58237;57.996;56.290;2022-08-30T06:06:16;23.05;;;13.13;;
70663;SDS011;58237;57.996;56.290;2022-08-30T06:08:42;20.15;;;11.20;;
70663;SDS011;58237;57.996;56.290;2022-08-30T06:11:07;21.20;;;12.25;;
70663;SDS011;58237;57.996;56.290;2022-08-30T06:13:32;22.52;;;12.43;;
70663;SDS011;58237;57.996;56.290;2022-08-30T06:15:58;22.73;;;12.27;;
70663;SDS011;58237;57.996;56.290;2022-08-30T06:18:23;21.48;;;12.10;;
70663;SDS011;58237;57.996;56.290;2022-08-30T06:20:49;21.38;;;10.93;;
70663;SDS011;58237;57.996;56.290;2022-08-30T06:23:14;18.10;;;10.70;;
70663;SDS011;58237;57.996;56.290;2022-08-30T06:25:39;18.35;;;10.93;;
70663;SDS011;58237;57.996;56.290;2022-08-30T06:28:05;19.35;;;9.85;;
70663;SDS011;58237;57.996;56.290;2022-08-30T06:30:31;17.63;;;10.63;;
70663;SDS011;58237;57.996;56.290;2022-08-30T06:32:56;20.60;;;11.13;;
70663;SDS011;58237;57.996;56.290;2022-08-30T06:35:22;19.90;;;11.93;;
70663;SDS011;58237;57.996;56.290;2022-08-30T06:37:47;21.05;;;11.75;;
70663;SDS011;58237;57.996;56.290;2022-08-30T06:40:12;19.88;;;11.32;;
70663;SDS011;58237;57.996;56.290;2022-08-30T06:42:38;19.90;;;11.40;;
70663;SDS011;58237;57.996;56.290;2022-08-30T06:45:03;19.65;;;11.65;;
70663;SDS011;58237;57.996;56.290;2022-08-30T06:47:29;21.92;;;13.60;;
70663;SDS011;58237;57.996;56.290;2022-08-30T06:49:54;21.85;;;12.68;;
70663;SDS011;58237;57.996;56.290;2022-08-30T06:52:20;22.98;;;12.00;;
70663;SDS011;58237;57.996;56.290;2022-08-30T06:54:45;18.52;;;11.50;;
70663;SDS011;58237;57.996;56.290;2022-08-30T06:57:11;19.67;;;11.73;;
70663;SDS011;58237;57.996;56.290;2022-08-30T06:59:36;22.55;;;12.57;;
70663;SDS011;58237;57.996;56.290;2022-08-30T07:02:01;24.73;;;12.95;;
70663;SDS011;58237;57.996;56.290;2022-08-30T07:04:27;19.58;;;12.27;;
70663;SDS011;58237;57.996;56.290;2022-08-30T07:06:52;19.55;;;11.90;;
70663;SDS011;58237;57.996;56.290;2022-08-30T07:09:17;18.63;;;11.10;;
70663;SDS011;58237;57.996;56.290;2022-08-30T07:11:43;22.88;;;13.05;;
70663;SDS011;58237;57.996;56.290;2022-08-30T07:14:08;21.92;;;11.68;;
70663;SDS011;58237;57.996;56.290;2022-08-30T07:16:33;22.23;;;12.20;;
70663;SDS011;58237;57.996;56.290;2022-08-30T07:18:59;23.00;;;13.00;;
70663;SDS011;58237;57.996;56.290;2022-08-30T07:21:29;23.80;;;13.52;;
70663;SDS011;58237;57.996;56.290;2022-08-30T07:23:56;19.70;;;10.98;;
70663;SDS011;58237;57.996;56.290;2022-08-30T07:26:24;19.98;;;11.52;;
70663;SDS011;58237;57.996;56.290;2022-08-30T07:28:50;19.77;;;12.38;;
70663;SDS011;58237;57.996;56.290;2022-08-30T07:31:15;21.67;;;11.38;;
70663;SDS011;58237;57.996;56.290;2022-08-30T07:33:41;21.50;;;12.48;;
70663;SDS011;58237;57.996;56.290;2022-08-30T07:36:07;21.23;;;12.00;;
70663;SDS011;58237;57.996;56.290;2022-08-30T07:38:32;20.50;;;12.30;;
70663;SDS011;58237;57.996;56.290;2022-08-30T07:40:58;23.40;;;12.52;;
70663;SDS011;58237;57.996;56.290;2022-08-30T07:43:23;20.50;;;12.18;;
70663;SDS011;58237;57.996;56.290;2022-08-30T07:45:49;23.77;;;12.48;;
70663;SDS011;58237;57.996;56.290;2022-08-30T07:48:14;21.23;;;11.77;;
70663;SDS011;58237;57.996;56.290;2022-08-30T07:50:42;19.92;;;11.23;;
70663;SDS011;58237;57.996;56.290;2022-08-30T07:53:08;19.65;;;11.80;;
70663;SDS011;58237;57.996;56.290;2022-08-30T07:55:33;20.88;;;12.60;;
70663;SDS011;58237;57.996;56.290;2022-08-30T07:57:59;21.08;;;12.98;;
70663;SDS011;58237;57.996;56.290;2022-08-30T08:00:24;22.75;;;13.35;;
70663;SDS011;58237;57.996;56.290;2022-08-30T08:02:49;25.67;;;14.25;;
70663;SDS011;58237;57.996;56.290;2022-08-30T08:05:15;22.02;;;13.95;;
70663;SDS011;58237;57.996;56.290;2022-08-30T08:07:40;22.00;;;11.73;;
70663;SDS011;58237;57.996;56.290;2022-08-30T08:10:06;18.48;;;11.35;;
70663;SDS011;58237;57.996;56.290;2022-08-30T08:12:31;18.80;;;11.18;;
70663;SDS011;58237;57.996;56.290;2022-08-30T08:14:56;22.27;;;12.55;;
70663;SDS011;58237;57.996;56.290;2022-08-30T08:17:22;21.52;;;13.60;;
70663;SDS011;58237;57.996;56.290;2022-08-30T08:19:47;21.55;;;11.98;;
70663;SDS011;58237;57.996;56.290;2022-08-30T08:22:13;21.67;;;13.20;;
70663;SDS011;58237;57.996;56.290;2022-08-30T08:24:38;20.95;;;12.00;;
70663;SDS011;58237;57.996;56.290;2022-08-30T08:27:03;20.73;;;12.93;;
70663;SDS011;58237;57.996;56.290;2022-08-30T08:29:29;25.05;;;12.60;;
70663;SDS011;58237;57.996;56.290;2022-08-30T08:31:54;21.65;;;12.60;;
70663;SDS011;58237;57.996;56.290;2022-08-30T08:34:19;20.65;;;11.85;;
70663;SDS011;58237;57.996;56.290;2022-08-30T08:36:45;25.60;;;13.80;;
70663;SDS011;58237;57.996;56.290;2022-08-30T08:39:10;22.23;;;13.60;;
70663;SDS011;58237;57.996;56.290;2022-08-30T08:49:16;21.35;;;11.82;;
70663;SDS011;58237;57.996;56.290;2022-08-30T08:51:41;17.58;;;11.52;;
70663;SDS011;58237;57.996;56.290;2022-08-30T08:54:09;24.88;;;12.52;;
70663;SDS011;58237;57.996;56.290;2022-08-30T08:56:35;25.50;;;12.80;;
70663;SDS011;58237;57.996;56.290;2022-08-30T08:59:01;20.02;;;11.75;;
70663;SDS011;58237;57.996;56.290;2022-08-30T09:01:27;18.98;;;10.88;;
70663;SDS011;58237;57.996;56.290;2022-08-30T09:03:54;20.00;;;11.13;;
70663;SDS011;58237;57.996;56.290;2022-08-30T09:08:48;23.98;;;14.02;;
70663;SDS011;58237;57.996;56.290;2022-08-30T09:11:17;23.50;;;12.93;;
70663;SDS011;58237;57.996;56.290;2022-08-30T09:13:44;23.70;;;11.73;;
70663;SDS011;58237;57.996;56.290;2022-08-30T09:16:10;20.42;;;11.85;;
70663;SDS011;58237;57.996;56.290;2022-08-30T09:18:55;23.00;;;12.48;;
70663;SDS011;58237;57.996;56.290;2022-08-30T09:21:22;23.98;;;13.57;;
70663;SDS011;58237;57.996;56.290;2022-08-30T09:23:49;21.63;;;12.23;;
70663;SDS011;58237;57.996;56.290;2022-08-30T09:26:14;25.05;;;13.00;;
70663;SDS011;58237;57.996;56.290;2022-08-30T09:28:51;20.77;;;12.85;;
70663;SDS011;58237;57.996;56.290;2022-08-30T09:31:17;19.25;;;11.63;;
70663;SDS011;58237;57.996;56.290;2022-08-30T09:36:41;20.75;;;11.73;;
70663;SDS011;58237;57.996;56.290;2022-08-30T09:39:14;19.98;;;12.60;;
70663;SDS011;58237;57.996;56.290;2022-08-30T09:41:41;18.23;;;10.88;;
70663;SDS011;58237;57.996;56.290;2022-08-30T09:44:25;17.20;;;10.38;;
70663;SDS011;58237;57.996;56.290;2022-08-30T09:46:52;20.33;;;11.27;;
70663;SDS011;58237;57.996;56.290;2022-08-30T09:49:37;19.85;;;11.60;;
70663;SDS011;58237;57.996;56.290;2022-08-30T09:54:52;17.88;;;10.40;;
70663;SDS011;58237;57.996;56.290;2022-08-30T09:57:28;19.92;;;9.32;;
70663;SDS011;58237;57.996;56.290;2022-08-30T10:02:32;25.15;;;11.25;;
70663;SDS011;58237;57.996;56.290;2022-08-30T10:05:21;21.60;;;12.57;;
70663;SDS011;58237;57.996;56.290;2022-08-30T10:07:55;20.17;;;10.60;;
70663;SDS011;58237;57.996;56.290;2022-08-30T10:12:55;17.95;;;9.60;;
70663;SDS011;58237;57.996;56.290;2022-08-30T10:15:28;18.25;;;9.82;;
70663;SDS011;58237;57.996;56.290;2022-08-30T10:18:02;18.05;;;9.98;;
70663;SDS011;58237;57.996;56.290;2022-08-30T10:23:00;21.95;;;12.20;;
70663;SDS011;58237;57.996;56.290;2022-08-30T10:27:52;16.77;;;9.65;;
70663;SDS011;58237;57.996;56.290;2022-08-30T10:30:19;19.48;;;10.15;;
70663;SDS011;58237;57.996;56.290;2022-08-30T10:35:17;18.90;;;10.77;;
70663;SDS011;58237;57.996;56.290;2022-08-30T10:37:49;17.67;;;10.38;;
70663;SDS011;58237;57.996;56.290;2022-08-30T10:40:36;21.42;;;10.80;;
70663;SDS011;58237;57.996;56.290;2022-08-30T10:43:01;18.55;;;10.75;;
70663;SDS011;58237;57.996;56.290;2022-08-30T10:45:28;17.10;;;9.73;;
70663;SDS011;58237;57.996;56.290;2022-08-30T10:48:02;19.60;;;10.77;;
70663;SDS011;58237;57.996;56.290;2022-08-30T10:50:31;20.33;;;11.15;;
70663;SDS011;58237;57.996;56.290;2022-08-30T10:53:00;17.80;;;8.98;;
70663;SDS011;58237;57.996;56.290;2022-08-30T10:55:32;18.77;;;10.15;;
70663;SDS011;58237;57.996;56.290;2022-08-30T10:58:02;19.42;;;10.60;;
70663;SDS011;58237;57.996;56.290;2022-08-30T11:06:04;18.48;;;9.02;;
70663;SDS011;58237;57.996;56.290;2022-08-30T11:13:35;16.80;;;8.88;;
70663;SDS011;58237;57.996;56.290;2022-08-30T11:18:27;19.05;;;10.23;;
70663;SDS011;58237;57.996;56.290;2022-08-30T11:20:54;20.13;;;10.00;;
70663;SDS011;58237;57.996;56.290;2022-08-30T11:23:35;19.90;;;11.05;;
70663;SDS011;58237;57.996;56.290;2022-08-30T11:26:10;22.13;;;10.98;;
70663;SDS011;58237;57.996;56.290;2022-08-30T11:33:49;18.88;;;10.02;;
70663;SDS011;58237;57.996;56.290;2022-08-30T11:41:31;18.47;;;10.87;;
70663;SDS011;58237;57.996;56.290;2022-08-30T11:46:40;17.67;;;9.90;;
70663;SDS011;58237;57.996;56.290;2022-08-30T11:54:09;15.75;;;9.75;;
70663;SDS011;58237;57.996;56.290;2022-08-30T12:00:24;19.77;;;10.45;;
70663;SDS011;58237;57.996;56.290;2022-08-30T12:04:56;16.85;;;9.50;;
70663;SDS011;58237;57.996;56.290;2022-08-30T12:10:05;17.02;;;9.80;;
70663;SDS011;58237;57.996;56.290;2022-08-30T12:14:56;17.33;;;10.07;;
70663;SDS011;58237;57.996;56.290;2022-08-30T12:19:47;18.65;;;9.85;;
70663;SDS011;58237;57.996;56.290;2022-08-30T12:22:14;17.85;;;9.13;;
70663;SDS011;58237;57.996;56.290;2022-08-30T12:24:42;20.48;;;10.07;;
70663;SDS011;58237;57.996;56.290;2022-08-30T12:29:50;17.73;;;10.38;;
70663;SDS011;58237;57.996;56.290;2022-08-30T12:32:16;19.15;;;9.50;;
70663;SDS011;58237;57.996;56.290;2022-08-30T12:37:24;20.27;;;10.20;;
70663;SDS011;58237;57.996;56.290;2022-08-30T12:42:35;17.00;;;10.38;;
70663;SDS011;58237;57.996;56.290;2022-08-30T12:45:05;18.63;;;10.48;;
70663;SDS011;58237;57.996;56.290;2022-08-30T12:47:36;19.75;;;10.38;;
70663;SDS011;58237;57.996;56.290;2022-08-30T12:50:02;21.98;;;11.15;;
70663;SDS011;58237;57.996;56.290;2022-08-30T12:52:33;20.58;;;11.65;;
70663;SDS011;58237;57.996;56.290;2022-08-30T12:55:33;21.25;;;10.88;;
70663;SDS011;58237;57.996;56.290;2022-08-30T12:57:59;17.88;;;10.27;;
70663;SDS011;58237;57.996;56.290;2022-08-30T13:00:37;19.77;;;9.27;;
70663;SDS011;58237;57.996;56.290;2022-08-30T13:05:46;23.10;;;10.95;;
70663;SDS011;58237;57.996;56.290;2022-08-30T13:08:19;19.13;;;10.60;;
70663;SDS011;58237;57.996;56.290;2022-08-30T13:16:57;18.90;;;10.73;;
70663;SDS011;58237;57.996;56.290;2022-08-30T13:19:24;30.67;;;13.25;;
70663;SDS011;58237;57.996;56.290;2022-08-30T13:21:48;25.63;;;12.13;;
70663;SDS011;58237;57.996;56.290;2022-08-30T13:24:14;32.60;;;12.60;;
70663;SDS011;58237;57.996;56.290;2022-08-30T13:26:39;29.58;;;13.07;;
70663;SDS011;58237;57.996;56.290;2022-08-30T13:29:05;24.83;;;11.40;;
70663;SDS011;58237;57.996;56.290;2022-08-30T13:31:30;23.60;;;11.30;;
70663;SDS011;58237;57.996;56.290;2022-08-30T13:33:56;26.83;;;10.93;;
70663;SDS011;58237;57.996;56.290;2022-08-30T13:36:27;25.00;;;11.38;;
70663;SDS011;58237;57.996;56.290;2022-08-30T13:38:53;23.10;;;11.57;;
70663;SDS011;58237;57.996;56.290;2022-08-30T13:41:18;19.35;;;10.35;;
70663;SDS011;58237;57.996;56.290;2022-08-30T13:43:43;20.85;;;10.88;;
70663;SDS011;58237;57.996;56.290;2022-08-30T13:46:09;19.10;;;10.82;;
70663;SDS011;58237;57.996;56.290;2022-08-30T13:48:35;19.45;;;10.07;;
70663;SDS011;58237;57.996;56.290;2022-08-30T13:51:01;18.80;;;9.75;;
70663;SDS011;58237;57.996;56.290;2022-08-30T13:53:26;20.17;;;9.95;;
70663;SDS011;58237;57.996;56.290;2022-08-30T13:55:51;18.80;;;10.75;;
70663;SDS011;58237;57.996;56.290;2022-08-30T13:58:17;17.67;;;10.55;;
70663;SDS011;58237;57.996;56.290;2022-08-30T14:00:42;19.58;;;11.20;;
70663;SDS011;58237;57.996;56.290;2022-08-30T14:03:08;16.67;;;9.52;;
70663;SDS011;58237;57.996;56.290;2022-08-30T14:05:35;20.70;;;11.18;;
70663;SDS011;58237;57.996;56.290;2022-08-30T14:08:00;20.33;;;10.52;;
70663;SDS011;58237;57.996;56.290;2022-08-30T14:10:26;22.15;;;10.85;;
70663;SDS011;58237;57.996;56.290;2022-08-30T14:12:52;17.15;;;10.13;;
70663;SDS011;58237;57.996;56.290;2022-08-30T14:15:17;18.52;;;10.13;;
70663;SDS011;58237;57.996;56.290;2022-08-30T14:17:43;17.13;;;10.52;;
70663;SDS011;58237;57.996;56.290;2022-08-30T14:20:08;16.75;;;10.63;;
70663;SDS011;58237;57.996;56.290;2022-08-30T14:22:34;19.05;;;10.88;;
70663;SDS011;58237;57.996;56.290;2022-08-30T14:24:59;20.60;;;11.10;;
70663;SDS011;58237;57.996;56.290;2022-08-30T14:27:24;19.02;;;10.90;;
70663;SDS011;58237;57.996;56.290;2022-08-30T14:29:50;20.88;;;10.73;;
70663;SDS011;58237;57.996;56.290;2022-08-30T14:32:15;19.50;;;10.70;;
70663;SDS011;58237;57.996;56.290;2022-08-30T14:34:40;19.85;;;10.30;;
70663;SDS011;58237;57.996;56.290;2022-08-30T14:37:06;20.02;;;10.52;;
70663;SDS011;58237;57.996;56.290;2022-08-30T14:39:31;18.45;;;10.85;;
70663;SDS011;58237;57.996;56.290;2022-08-30T14:41:56;19.17;;;10.27;;
70663;SDS011;58237;57.996;56.290;2022-08-30T14:44:22;24.25;;;11.68;;
70663;SDS011;58237;57.996;56.290;2022-08-30T14:46:48;19.75;;;11.20;;
70663;SDS011;58237;57.996;56.290;2022-08-30T14:49:14;22.00;;;11.30;;
70663;SDS011;58237;57.996;56.290;2022-08-30T14:51:39;25.55;;;11.02;;
70663;SDS011;58237;57.996;56.290;2022-08-30T14:54:05;19.35;;;10.75;;
70663;SDS011;58237;57.996;56.290;2022-08-30T14:56:30;17.60;;;10.48;;
70663;SDS011;58237;57.996;56.290;2022-08-30T14:58:55;20.75;;;11.15;;
70663;SDS011;58237;57.996;56.290;2022-08-30T15:01:21;22.10;;;11.23;;
70663;SDS011;58237;57.996;56.290;2022-08-30T15:03:46;18.98;;;11.25;;
70663;SDS011;58237;57.996;56.290;2022-08-30T15:06:12;21.92;;;11.57;;
70663;SDS011;58237;57.996;56.290;2022-08-30T15:08:37;18.80;;;11.50;;
70663;SDS011;58237;57.996;56.290;2022-08-30T15:11:07;19.20;;;10.80;;
70663;SDS011;58237;57.996;56.290;2022-08-30T15:13:32;21.63;;;10.75;;
70663;SDS011;58237;57.996;56.290;2022-08-30T15:15:58;18.38;;;11.38;;
70663;SDS011;58237;57.996;56.290;2022-08-30T15:18:23;23.70;;;12.07;;
70663;SDS011;58237;57.996;56.290;2022-08-30T15:20:54;20.70;;;10.80;;
70663;SDS011;58237;57.996;56.290;2022-08-30T15:23:19;17.77;;;10.88;;
70663;SDS011;58237;57.996;56.290;2022-08-30T15:25:44;20.60;;;11.40;;
70663;SDS011;58237;57.996;56.290;2022-08-30T15:28:10;24.00;;;12.75;;
70663;SDS011;58237;57.996;56.290;2022-08-30T15:30:35;19.98;;;10.70;;
70663;SDS011;58237;57.996;56.290;2022-08-30T15:33:01;19.08;;;10.35;;
70663;SDS011;58237;57.996;56.290;2022-08-30T15:35:26;21.98;;;10.40;;
70663;SDS011;58237;57.996;56.290;2022-08-30T15:37:51;18.17;;;10.35;;